createdAt,value
2019-03-26T00:02:24.018Z,7.73
2019-03-26T00:04:53.949Z,6.80
2019-03-26T00:07:24.126Z,7.17
2019-03-26T00:09:54.602Z,7.87
2019-03-26T00:12:24.530Z,7.57
2019-03-26T00:14:54.521Z,7.03
2019-03-26T00:17:24.395Z,7.30
2019-03-26T00:19:54.602Z,7.27
2019-03-26T00:22:24.616Z,7.30
2019-03-26T00:24:54.531Z,6.77
2019-03-26T00:27:24.540Z,7.43
2019-03-26T00:29:54.776Z,7.13
2019-03-26T00:32:24.720Z,6.60
2019-03-26T00:34:54.696Z,6.67
2019-03-26T00:37:24.705Z,7.20
2019-03-26T00:39:55.176Z,6.43
2019-03-26T00:42:25.165Z,6.60
2019-03-26T00:44:55.077Z,7.27
2019-03-26T00:47:25.007Z,6.80
2019-03-26T00:49:55.238Z,6.80
2019-03-26T00:52:25.276Z,7.27
2019-03-26T00:54:55.186Z,6.90
2019-03-26T00:57:25.095Z,7.37
2019-03-26T00:59:55.031Z,6.77
2019-03-26T01:02:25.050Z,6.93
2019-03-26T01:04:55.344Z,6.70
2019-03-26T01:07:25.252Z,7.23
2019-03-26T01:09:55.130Z,6.63
2019-03-26T01:12:25.193Z,6.83
2019-03-26T01:14:55.085Z,7.03
2019-03-26T01:17:25.030Z,6.47
2019-03-26T01:19:54.922Z,6.63
2019-03-26T01:22:25.121Z,7.13
2019-03-26T01:24:55.402Z,6.53
2019-03-26T01:27:25.626Z,7.10
2019-03-26T01:29:55.720Z,7.57
2019-03-26T01:32:26.082Z,6.67
2019-03-26T01:34:55.937Z,7.33
2019-03-26T01:37:25.890Z,7.23
2019-03-26T01:39:56.301Z,7.20
2019-03-26T01:42:26.337Z,7.30
2019-03-26T01:44:56.363Z,6.83
2019-03-26T01:47:26.290Z,7.03
2019-03-26T01:49:56.554Z,7.20
2019-03-26T01:52:26.531Z,7.37
2019-03-26T01:54:56.577Z,7.43
2019-03-26T01:57:26.506Z,7.57
2019-03-26T01:59:56.424Z,7.03
2019-03-26T02:02:26.366Z,7.17
2019-03-26T02:05:00.303Z,7.13
2019-03-26T02:07:27.849Z,7.67
2019-03-26T02:09:57.963Z,7.70
2019-03-26T02:12:27.905Z,7.70
2019-03-26T02:14:57.814Z,7.10
2019-03-26T02:17:27.899Z,8.00
2019-03-26T02:19:57.841Z,7.93
2019-03-26T02:22:28.091Z,8.03
2019-03-26T02:24:58.013Z,7.73
2019-03-26T02:27:28.054Z,8.60
2019-03-26T02:29:57.983Z,8.30
2019-03-26T02:32:27.881Z,9.07
2019-03-26T02:34:57.948Z,8.30
2019-03-26T02:37:27.821Z,7.83
2019-03-26T02:39:57.765Z,8.40
2019-03-26T02:42:27.719Z,9.07
2019-03-26T02:44:57.647Z,8.20
2019-03-26T02:47:28.022Z,8.70
2019-03-26T02:49:57.982Z,9.03
2019-03-26T02:52:27.837Z,8.77
2019-03-26T02:54:57.762Z,8.43
2019-03-26T02:57:28.099Z,8.50
2019-03-26T02:59:59.630Z,8.93
2019-03-26T03:02:29.509Z,9.33
2019-03-26T03:04:59.650Z,10.00
2019-03-26T03:07:29.723Z,8.57
2019-03-26T03:09:59.771Z,8.83
2019-03-26T03:12:29.683Z,9.37
2019-03-26T03:14:59.587Z,8.67
2019-03-26T03:17:29.520Z,9.30
2019-03-26T03:19:59.801Z,8.70
2019-03-26T03:22:30.788Z,8.83
2019-03-26T03:25:00.586Z,8.70
2019-03-26T03:27:30.596Z,8.63
2019-03-26T03:30:00.553Z,9.30
2019-03-26T03:32:30.659Z,8.27
2019-03-26T03:35:00.915Z,9.33
2019-03-26T03:37:31.169Z,9.13
2019-03-26T03:40:01.232Z,9.10
2019-03-26T03:42:31.342Z,8.87
2019-03-26T03:45:01.237Z,8.27
2019-03-26T03:47:34.195Z,8.57
2019-03-26T03:50:04.439Z,8.70
2019-03-26T03:52:40.515Z,8.17
2019-03-26T03:55:11.822Z,8.17
2019-03-26T03:57:42.226Z,8.80
2019-03-26T04:00:30.816Z,8.47
2019-03-26T04:03:01.311Z,8.30
2019-03-26T04:05:31.198Z,8.23
2019-03-26T04:08:01.134Z,8.80
2019-03-26T04:10:30.983Z,9.17
2019-03-26T04:13:00.940Z,8.67
2019-03-26T04:15:34.488Z,8.30
2019-03-26T04:18:02.991Z,9.07
2019-03-26T04:20:32.877Z,10.07
2019-03-26T04:23:02.751Z,9.27
2019-03-26T04:25:32.648Z,8.23
2019-03-26T04:28:02.556Z,9.43
2019-03-26T04:30:34.139Z,8.77
2019-03-26T04:33:04.348Z,9.17
2019-03-26T04:35:34.228Z,9.40
2019-03-26T04:38:04.166Z,9.27
2019-03-26T04:40:34.263Z,9.07
2019-03-26T04:43:04.226Z,10.00
2019-03-26T04:45:34.130Z,9.77
2019-03-26T04:48:04.042Z,8.87
2019-03-26T04:50:34.474Z,9.97
2019-03-26T04:53:04.498Z,10.20
2019-03-26T04:55:35.036Z,12.63
2019-03-26T04:58:04.999Z,11.03
2019-03-26T05:00:35.386Z,11.50
2019-03-26T05:03:05.412Z,12.13
2019-03-26T05:05:35.737Z,11.70
2019-03-26T05:08:05.658Z,12.10
2019-03-26T05:10:35.562Z,12.33
2019-03-26T05:13:05.571Z,12.23
2019-03-26T05:15:35.713Z,11.03
2019-03-26T05:18:05.717Z,12.00
2019-03-26T05:20:35.844Z,11.87
2019-03-26T05:23:05.663Z,11.37
2019-03-26T05:25:35.652Z,11.20
2019-03-26T05:28:05.579Z,10.77
2019-03-26T05:30:35.759Z,11.10
2019-03-26T05:33:05.693Z,10.63
2019-03-26T05:35:35.646Z,11.27
2019-03-26T05:38:05.689Z,10.73
2019-03-26T05:40:37.869Z,11.33
2019-03-26T05:43:07.962Z,11.50
2019-03-26T05:45:40.341Z,11.77
2019-03-26T05:48:10.581Z,12.43
2019-03-26T05:50:40.630Z,12.97
2019-03-26T05:53:10.947Z,12.83
2019-03-26T05:55:40.967Z,12.73
2019-03-26T05:58:10.959Z,11.70
2019-03-26T06:00:40.943Z,13.13
2019-03-26T06:03:10.855Z,11.77
2019-03-26T06:05:40.940Z,11.90
2019-03-26T06:08:11.371Z,12.03
2019-03-26T06:10:41.274Z,11.93
2019-03-26T06:13:11.231Z,12.27
2019-03-26T06:15:41.207Z,11.27
2019-03-26T06:18:11.722Z,12.87
2019-03-26T06:20:41.782Z,19.97
2019-03-26T06:23:11.876Z,14.10
2019-03-26T06:25:42.124Z,13.10
2019-03-26T06:28:12.131Z,11.53
2019-03-26T06:30:42.342Z,13.30
2019-03-26T06:33:12.269Z,12.67
2019-03-26T06:35:42.229Z,11.97
2019-03-26T06:38:12.327Z,11.43
2019-03-26T06:40:42.493Z,11.90
2019-03-26T06:43:12.342Z,10.87
2019-03-26T06:45:42.394Z,10.67
2019-03-26T06:48:12.651Z,10.80
2019-03-26T06:50:42.738Z,10.10
2019-03-26T06:53:12.676Z,10.53
2019-03-26T06:55:42.666Z,10.97
2019-03-26T06:58:13.037Z,10.73
2019-03-26T07:00:43.159Z,10.17
2019-03-26T07:03:13.276Z,11.00
2019-03-26T07:05:43.282Z,11.70
2019-03-26T07:08:13.198Z,11.73
2019-03-26T07:10:43.203Z,11.10
2019-03-26T07:13:13.429Z,10.53
2019-03-26T07:15:43.823Z,11.17
2019-03-26T07:18:13.931Z,10.30
2019-03-26T07:20:44.050Z,10.63
2019-03-26T07:23:14.324Z,11.07
2019-03-26T07:25:44.299Z,10.63
2019-03-26T07:28:14.203Z,10.60
2019-03-26T07:30:45.223Z,11.70
2019-03-26T07:33:15.215Z,11.73
2019-03-26T07:35:45.182Z,10.83
2019-03-26T07:38:15.195Z,10.33
2019-03-26T07:40:45.239Z,10.03
2019-03-26T07:43:15.572Z,10.23
2019-03-26T07:45:45.623Z,10.60
2019-03-26T07:48:16.010Z,9.60
2019-03-26T07:50:46.376Z,10.60
2019-03-26T07:53:16.434Z,9.40
2019-03-26T07:55:46.387Z,9.07
2019-03-26T07:58:16.318Z,9.50
2019-03-26T08:00:46.259Z,9.77
2019-03-26T08:03:16.254Z,9.63
2019-03-26T08:05:46.189Z,8.83
2019-03-26T08:08:16.109Z,9.40
2019-03-26T08:10:46.246Z,9.30
2019-03-26T08:13:16.210Z,9.10
2019-03-26T08:15:46.197Z,8.93
2019-03-26T08:18:16.216Z,9.37
2019-03-26T08:20:46.216Z,9.17
2019-03-26T08:23:16.666Z,11.20
2019-03-26T08:25:46.649Z,8.43
2019-03-26T08:28:17.137Z,8.57
2019-03-26T08:30:49.991Z,9.10
2019-03-26T08:33:18.725Z,9.83
2019-03-26T08:35:48.762Z,9.00
2019-03-26T08:38:19.119Z,9.30
2019-03-26T08:40:49.402Z,8.77
2019-03-26T08:43:19.655Z,8.07
2019-03-26T08:45:49.919Z,8.20
2019-03-26T08:48:19.851Z,7.83
2019-03-26T08:50:49.935Z,8.23
2019-03-26T08:53:20.033Z,8.33
2019-03-26T08:55:50.207Z,7.83
2019-03-26T08:58:20.243Z,8.27
2019-03-26T09:00:50.338Z,7.37
2019-03-26T09:03:20.322Z,6.57
2019-03-26T09:05:50.831Z,7.43
2019-03-26T09:08:25.494Z,6.50
2019-03-26T09:10:52.834Z,6.27
2019-03-26T09:13:22.909Z,7.10
2019-03-26T09:15:52.933Z,6.00
2019-03-26T09:18:23.025Z,6.67
2019-03-26T09:20:53.081Z,5.73
2019-03-26T09:23:23.604Z,6.47
2019-03-26T09:25:53.551Z,6.33
2019-03-26T09:28:23.731Z,6.70
2019-03-26T09:30:53.619Z,6.83
2019-03-26T09:33:23.561Z,6.50
2019-03-26T09:35:53.570Z,6.00
2019-03-26T09:38:23.519Z,6.13
2019-03-26T09:40:53.600Z,6.70
2019-03-26T09:43:23.591Z,6.70
2019-03-26T09:45:53.955Z,6.00
2019-03-26T09:48:24.086Z,6.20
2019-03-26T09:50:54.223Z,7.10
2019-03-26T09:53:24.170Z,5.63
2019-03-26T09:55:54.225Z,6.10
2019-03-26T09:58:25.334Z,6.23
2019-03-26T10:00:55.813Z,6.60
2019-03-26T10:03:25.964Z,5.70
2019-03-26T10:05:56.222Z,5.63
2019-03-26T10:08:26.147Z,5.83
2019-03-26T10:10:56.290Z,5.23
2019-03-26T10:13:26.198Z,5.90
2019-03-26T10:15:56.172Z,6.33
2019-03-26T10:18:27.171Z,6.30
2019-03-26T10:20:57.305Z,6.23
2019-03-26T10:23:27.524Z,5.77
2019-03-26T10:25:57.441Z,5.30
2019-03-26T10:28:27.330Z,5.20
2019-03-26T10:30:57.389Z,5.57
2019-03-26T10:33:27.211Z,5.27
2019-03-26T10:35:57.321Z,4.93
2019-03-26T10:38:27.486Z,4.47
2019-03-26T10:40:57.443Z,4.50
2019-03-26T10:43:29.473Z,4.70
2019-03-26T10:45:59.410Z,5.10
2019-03-26T10:48:31.802Z,4.57
2019-03-26T10:51:01.273Z,5.57
2019-03-26T10:53:31.155Z,5.17
2019-03-26T10:56:01.265Z,6.10
2019-03-26T10:58:31.180Z,6.10
2019-03-26T11:01:01.278Z,3.80
2019-03-26T11:03:31.077Z,3.73
2019-03-26T11:06:01.241Z,4.50
2019-03-26T11:08:31.334Z,4.80
2019-03-26T11:11:01.450Z,5.10
2019-03-26T11:13:31.728Z,4.43
2019-03-26T11:16:01.982Z,4.70
2019-03-26T11:18:32.077Z,4.17
2019-03-26T11:21:03.186Z,4.30
2019-03-26T11:23:33.555Z,4.57
2019-03-26T11:26:03.461Z,4.47
2019-03-26T11:28:33.831Z,4.27
2019-03-26T11:31:03.710Z,4.33
2019-03-26T11:33:33.779Z,4.97
2019-03-26T11:36:03.759Z,4.13
2019-03-26T11:38:34.218Z,4.37
2019-03-26T11:41:04.472Z,4.20
2019-03-26T11:43:34.625Z,4.27
2019-03-26T11:46:04.567Z,4.07
2019-03-26T11:48:34.509Z,4.60
2019-03-26T11:51:04.513Z,4.33
2019-03-26T11:53:34.507Z,4.33
2019-03-26T11:56:04.587Z,4.10
2019-03-26T11:58:34.714Z,4.33
2019-03-26T12:01:05.231Z,4.20
2019-03-26T12:03:35.311Z,4.00
2019-03-26T12:06:05.848Z,3.77
2019-03-26T12:08:36.102Z,6.63
2019-03-26T12:11:06.017Z,4.43
2019-03-26T12:13:36.009Z,4.10
2019-03-26T12:16:05.971Z,3.73
2019-03-26T12:18:36.207Z,3.10
2019-03-26T12:21:06.222Z,3.30
2019-03-26T12:23:36.172Z,4.03
2019-03-26T12:26:06.288Z,3.07
2019-03-26T12:28:36.225Z,3.57
2019-03-26T12:31:06.356Z,3.27
2019-03-26T12:33:36.558Z,3.47
2019-03-26T12:36:06.570Z,3.30
2019-03-26T12:38:36.555Z,3.20
2019-03-26T12:41:06.631Z,2.90
2019-03-26T12:43:37.091Z,2.47
2019-03-26T12:46:07.144Z,2.80
2019-03-26T12:48:37.591Z,3.27
2019-03-26T12:51:07.691Z,3.90
2019-03-26T12:53:37.817Z,3.40
2019-03-26T12:56:07.944Z,2.50
2019-03-26T12:58:38.024Z,3.00
2019-03-26T13:01:08.132Z,3.00
2019-03-26T13:03:38.138Z,3.20
2019-03-26T13:06:08.183Z,3.30
2019-03-26T13:08:38.404Z,3.70
2019-03-26T13:11:08.555Z,3.40
2019-03-26T13:13:38.746Z,3.23
2019-03-26T13:16:08.691Z,4.00
2019-03-26T13:18:39.191Z,3.63
2019-03-26T13:21:09.178Z,4.03
2019-03-26T13:23:39.579Z,4.23
2019-03-26T13:26:09.953Z,4.70
2019-03-26T13:28:40.473Z,3.33
2019-03-26T13:31:10.431Z,3.13
2019-03-26T13:33:40.881Z,3.20
2019-03-26T13:36:10.955Z,4.10
2019-03-26T13:38:41.258Z,3.40
2019-03-26T13:41:11.232Z,3.33
2019-03-26T13:43:41.850Z,2.93
2019-03-26T13:46:11.882Z,3.23
2019-03-26T13:48:42.329Z,3.30
2019-03-26T13:51:12.488Z,3.27
2019-03-26T13:53:42.469Z,2.73
2019-03-26T13:56:12.406Z,2.83
2019-03-26T13:58:43.255Z,2.90
2019-03-26T14:01:13.150Z,3.10
2019-03-26T14:03:43.209Z,3.47
2019-03-26T14:06:13.281Z,3.73
2019-03-26T14:08:43.763Z,3.83
2019-03-26T14:11:13.698Z,4.13
2019-03-26T14:13:43.816Z,3.53
2019-03-26T14:16:14.023Z,2.43
2019-03-26T14:18:44.420Z,2.57
2019-03-26T14:21:14.573Z,2.50
2019-03-26T14:23:45.013Z,3.37
2019-03-26T14:26:15.267Z,2.40
2019-03-26T14:28:45.906Z,2.20
2019-03-26T14:31:15.889Z,2.40
2019-03-26T14:33:46.257Z,2.70
2019-03-26T14:36:16.245Z,3.00
2019-03-26T14:38:46.334Z,2.27
2019-03-26T14:41:16.582Z,2.13
2019-03-26T14:43:46.865Z,2.10
2019-03-26T14:46:17.151Z,2.70
2019-03-26T14:48:47.258Z,2.40
2019-03-26T14:51:17.300Z,2.30
2019-03-26T14:53:47.911Z,2.40
2019-03-26T14:56:18.107Z,2.07
2019-03-26T14:58:48.420Z,2.03
2019-03-26T15:01:18.573Z,2.17
2019-03-26T15:03:48.647Z,1.80
2019-03-26T15:06:18.934Z,2.60
2019-03-26T15:08:50.574Z,2.73
2019-03-26T15:11:20.961Z,3.13
2019-03-26T15:13:51.052Z,2.30
2019-03-26T15:16:21.192Z,2.20
2019-03-26T15:18:51.282Z,2.47
2019-03-26T15:21:21.286Z,2.57
2019-03-26T15:23:51.687Z,2.60
2019-03-26T15:26:21.640Z,2.53
2019-03-26T15:28:51.790Z,2.80
2019-03-26T15:31:21.774Z,2.73
2019-03-26T15:33:51.792Z,2.60
2019-03-26T15:36:21.815Z,3.20
2019-03-26T15:38:51.894Z,2.50
2019-03-26T15:41:22.247Z,3.97
2019-03-26T15:43:52.444Z,9.17
2019-03-26T15:46:22.399Z,2.17
2019-03-26T15:48:52.782Z,2.40
2019-03-26T15:51:22.843Z,2.20
2019-03-26T15:53:52.996Z,2.60
2019-03-26T15:56:23.167Z,3.20
2019-03-26T15:58:53.412Z,2.63
2019-03-26T16:01:24.684Z,2.30
2019-03-26T16:03:54.889Z,3.10
2019-03-26T16:06:24.968Z,2.53
2019-03-26T16:08:55.196Z,2.30
2019-03-26T16:11:35.552Z,2.70
2019-03-26T16:13:57.643Z,2.60
2019-03-26T16:16:27.576Z,2.63
2019-03-26T16:18:57.819Z,2.33
2019-03-26T16:21:28.094Z,2.53
2019-03-26T16:23:58.204Z,2.40
2019-03-26T16:26:28.238Z,2.50
2019-03-26T16:28:58.194Z,2.20
2019-03-26T16:31:28.603Z,2.40
2019-03-26T16:33:58.949Z,2.00
2019-03-26T16:36:29.001Z,2.60
2019-03-26T16:38:59.484Z,2.20
2019-03-26T16:41:29.499Z,2.20
2019-03-26T16:43:59.826Z,2.30
2019-03-26T16:46:30.194Z,2.80
2019-03-26T16:49:00.489Z,2.70
2019-03-26T16:51:30.646Z,3.40
2019-03-26T16:54:00.632Z,3.73
2019-03-26T16:56:30.893Z,4.13
2019-03-26T16:59:01.465Z,3.87
2019-03-26T17:01:31.395Z,4.20
2019-03-26T17:04:01.339Z,4.10
2019-03-26T17:06:31.398Z,4.50
2019-03-26T17:09:01.686Z,3.53
2019-03-26T17:11:32.029Z,4.23
2019-03-26T17:14:02.063Z,4.77
2019-03-26T17:16:32.194Z,6.17
2019-03-26T17:19:02.285Z,7.93
2019-03-26T17:21:32.344Z,8.20
2019-03-26T17:24:02.320Z,8.80
2019-03-26T17:26:32.451Z,8.43
2019-03-26T17:29:02.746Z,9.93
2019-03-26T17:31:32.699Z,9.53
2019-03-26T17:34:02.789Z,8.90
2019-03-26T17:36:32.739Z,9.43
2019-03-26T17:39:02.923Z,10.73
2019-03-26T17:41:32.920Z,8.80
2019-03-26T17:44:02.829Z,9.57
2019-03-26T17:46:32.875Z,9.17
2019-03-26T17:49:03.049Z,10.07
2019-03-26T17:51:33.176Z,9.23
2019-03-26T17:54:03.397Z,9.20
2019-03-26T17:56:33.551Z,9.40
2019-03-26T17:59:03.684Z,10.03
2019-03-26T18:01:34.401Z,9.23
2019-03-26T18:04:05.006Z,9.37
2019-03-26T18:06:35.264Z,9.60
2019-03-26T18:09:07.171Z,9.77
2019-03-26T18:11:37.591Z,9.60
2019-03-26T18:14:08.166Z,9.63
2019-03-26T18:16:38.151Z,9.70
2019-03-26T18:19:08.394Z,9.07
2019-03-26T18:21:50.840Z,9.67
2019-03-26T18:24:10.879Z,9.23
2019-03-26T18:26:40.955Z,10.07
2019-03-26T18:29:11.109Z,9.60
2019-03-26T18:31:41.599Z,9.60
2019-03-26T18:34:11.976Z,10.07
2019-03-26T18:36:42.021Z,10.10
2019-03-26T18:39:12.473Z,9.60
2019-03-26T18:41:42.751Z,9.43
2019-03-26T18:44:12.895Z,9.83
2019-03-26T18:46:43.151Z,9.87
2019-03-26T18:49:13.310Z,9.40
2019-03-26T18:51:43.603Z,9.57
2019-03-26T18:54:14.137Z,9.00
2019-03-26T18:56:44.370Z,9.13
2019-03-26T18:59:14.508Z,9.13
2019-03-26T19:01:45.013Z,9.23
2019-03-26T19:04:15.455Z,8.57
2019-03-26T19:06:45.882Z,8.50
2019-03-26T19:09:16.140Z,9.43
2019-03-26T19:11:46.416Z,8.67
2019-03-26T19:14:16.953Z,9.67
2019-03-26T19:16:47.289Z,8.43
2019-03-26T19:19:17.784Z,8.30
2019-03-26T19:21:48.124Z,8.83
2019-03-26T19:24:18.986Z,8.87
2019-03-26T19:26:49.257Z,8.53
2019-03-26T19:29:19.609Z,8.30
2019-03-26T19:31:49.967Z,8.23
2019-03-26T19:34:20.336Z,8.53
2019-03-26T19:36:50.810Z,9.00
2019-03-26T19:39:21.332Z,8.27
2019-03-26T19:41:51.952Z,8.27
2019-03-26T19:44:22.742Z,8.10
2019-03-26T19:46:53.116Z,8.40
2019-03-26T19:49:23.611Z,8.80
2019-03-26T19:51:54.119Z,8.40
2019-03-26T19:54:25.141Z,8.43
2019-03-26T19:56:56.125Z,8.93
2019-03-26T19:59:26.463Z,8.13
2019-03-26T20:01:57.318Z,8.63
2019-03-26T20:04:27.789Z,8.07
2019-03-26T20:06:57.992Z,8.60
2019-03-26T20:09:28.523Z,8.77
2019-03-26T20:11:58.900Z,8.57
2019-03-26T20:14:29.346Z,8.37
2019-03-26T20:16:59.838Z,7.83
2019-03-26T20:19:30.471Z,8.77
2019-03-26T20:22:00.838Z,7.73
2019-03-26T20:24:31.097Z,8.13
2019-03-26T20:27:01.370Z,8.27
2019-03-26T20:29:31.591Z,8.67
2019-03-26T20:32:01.698Z,9.07
2019-03-26T20:34:32.097Z,8.37
2019-03-26T20:37:02.413Z,8.20
2019-03-26T20:39:32.545Z,8.70
2019-03-26T20:42:02.940Z,8.93
2019-03-26T20:44:33.127Z,8.30
2019-03-26T20:47:03.650Z,8.57
2019-03-26T20:49:34.311Z,8.77
2019-03-26T20:52:04.611Z,8.50
2019-03-26T20:54:34.862Z,9.77
2019-03-26T20:57:05.088Z,8.43
2019-03-26T20:59:35.570Z,8.30
2019-03-26T21:02:05.905Z,8.43
2019-03-26T21:04:36.205Z,8.70
2019-03-26T21:07:06.530Z,8.17
2019-03-26T21:09:37.028Z,7.97
2019-03-26T21:12:07.412Z,8.20
2019-03-26T21:14:37.848Z,9.20
2019-03-26T21:17:08.402Z,8.60
2019-03-26T21:19:39.135Z,8.77
2019-03-26T21:22:09.370Z,8.37
2019-03-26T21:24:39.699Z,9.20
2019-03-26T21:27:10.207Z,9.43
2019-03-26T21:29:40.582Z,8.43
2019-03-26T21:32:13.178Z,9.23
2019-03-26T21:34:43.266Z,8.60
2019-03-26T21:37:13.627Z,8.70
2019-03-26T21:39:43.699Z,8.63
2019-03-26T21:42:14.094Z,8.30
2019-03-26T21:44:44.407Z,8.40
2019-03-26T21:47:14.519Z,9.30
2019-03-26T21:49:48.319Z,8.20
2019-03-26T21:52:17.034Z,8.40
2019-03-26T21:54:47.591Z,8.90
2019-03-26T21:57:17.677Z,8.20
2019-03-26T21:59:48.093Z,9.23
2019-03-26T22:02:18.173Z,9.30
2019-03-26T22:04:48.412Z,9.33
2019-03-26T22:07:18.412Z,10.27
2019-03-26T22:09:48.807Z,8.90
2019-03-26T22:12:20.876Z,8.87
2019-03-26T22:14:51.818Z,9.93
2019-03-26T22:17:22.339Z,9.33
2019-03-26T22:19:52.452Z,8.53
2019-03-26T22:22:22.729Z,9.70
2019-03-26T22:24:52.722Z,9.27
2019-03-26T22:27:23.102Z,9.40
2019-03-26T22:29:53.246Z,10.00
2019-03-26T22:32:23.340Z,9.33
2019-03-26T22:34:53.381Z,9.17
2019-03-26T22:37:23.612Z,9.27
2019-03-26T22:39:53.516Z,9.70
2019-03-26T22:42:23.596Z,9.63
2019-03-26T22:44:53.746Z,10.67
2019-03-26T22:47:24.100Z,10.20
2019-03-26T22:49:57.094Z,9.90
2019-03-26T22:52:25.892Z,10.00
2019-03-26T22:54:55.811Z,10.20
2019-03-26T22:57:25.989Z,10.60
2019-03-26T22:59:55.944Z,10.03
2019-03-26T23:02:26.155Z,9.93
2019-03-26T23:04:56.252Z,10.33
2019-03-26T23:07:26.587Z,10.67
2019-03-26T23:09:56.570Z,9.83
2019-03-26T23:12:26.572Z,10.50
2019-03-26T23:14:56.490Z,10.00
2019-03-26T23:17:26.668Z,10.73
2019-03-26T23:19:56.793Z,10.70
2019-03-26T23:22:27.210Z,9.93
2019-03-26T23:24:57.348Z,10.57
2019-03-26T23:27:27.359Z,10.93
2019-03-26T23:29:57.267Z,10.60
2019-03-26T23:32:27.413Z,10.47
2019-03-26T23:34:57.774Z,12.10
2019-03-26T23:37:27.974Z,12.43
2019-03-26T23:39:57.993Z,11.90
2019-03-26T23:42:28.063Z,11.13
2019-03-26T23:44:58.807Z,10.87
2019-03-26T23:47:29.127Z,11.03
2019-03-26T23:49:59.293Z,11.60
2019-03-26T23:52:29.438Z,11.33
2019-03-26T23:54:59.880Z,9.97
2019-03-26T23:57:29.986Z,10.97
